createdAt,value
2018-12-22T00:01:46.921Z,11.70
2018-12-22T00:04:20.726Z,11.80
2018-12-22T00:06:56.259Z,11.80
2018-12-22T00:09:31.751Z,11.90
2018-12-22T00:12:05.443Z,11.90
2018-12-22T00:14:43.056Z,11.80
2018-12-22T00:17:16.626Z,11.90
2018-12-22T00:19:58.018Z,11.90
2018-12-22T00:22:32.083Z,11.90
2018-12-22T00:25:12.397Z,12.00
2018-12-22T00:27:49.589Z,12.00
2018-12-22T00:30:25.476Z,11.90
2018-12-22T00:33:02.736Z,11.90
2018-12-22T00:35:38.199Z,11.90
2018-12-22T00:38:15.621Z,11.90
2018-12-22T00:40:53.587Z,11.90
2018-12-22T00:43:28.987Z,11.90
2018-12-22T00:46:08.296Z,12.00
2018-12-22T00:51:39.512Z,12.00
2018-12-22T00:54:14.629Z,12.00
2018-12-22T00:56:46.028Z,12.00
2018-12-22T00:59:26.919Z,12.00
2018-12-22T01:02:01.982Z,12.10
2018-12-22T01:04:42.600Z,12.20
2018-12-22T01:07:26.465Z,12.30
2018-12-22T01:10:00.418Z,12.40
2018-12-22T01:12:34.211Z,12.30
2018-12-22T01:15:04.818Z,12.30
2018-12-22T01:17:40.143Z,12.30
2018-12-22T01:20:16.130Z,12.30
2018-12-22T01:22:58.031Z,12.30
2018-12-22T01:25:29.216Z,12.40
2018-12-22T01:28:09.194Z,12.40
2018-12-22T01:30:42.531Z,12.30
2018-12-22T01:33:18.142Z,12.30
2018-12-22T01:35:52.850Z,12.30
2018-12-22T01:38:26.684Z,12.30
2018-12-22T01:40:56.143Z,12.30
2018-12-22T01:43:31.398Z,12.40
2018-12-22T01:46:09.064Z,12.30
2018-12-22T01:48:49.000Z,12.20
2018-12-22T01:51:22.383Z,12.30
2018-12-22T01:54:02.636Z,12.30
2018-12-22T01:56:33.636Z,12.30
2018-12-22T01:59:08.939Z,12.20
2018-12-22T02:01:40.076Z,12.10
2018-12-22T02:04:11.758Z,12.20
2018-12-22T02:06:49.068Z,12.20
2018-12-22T02:09:29.190Z,12.20
2018-12-22T02:12:00.826Z,12.20
2018-12-22T02:14:35.771Z,12.20
2018-12-22T02:17:09.008Z,12.10
2018-12-22T02:19:44.078Z,12.10
2018-12-22T02:22:17.733Z,12.00
2018-12-22T02:24:57.760Z,11.90
2018-12-22T02:27:34.902Z,12.00
2018-12-22T02:30:06.380Z,11.90
2018-12-22T02:32:37.959Z,11.90
2018-12-22T02:35:11.299Z,11.80
2018-12-22T02:37:42.560Z,11.70
2018-12-22T02:40:16.707Z,11.70
2018-12-22T02:42:50.483Z,11.70
2018-12-22T02:45:30.625Z,11.70
2018-12-22T02:48:00.461Z,11.60
2018-12-22T02:50:35.275Z,11.70
2018-12-22T02:53:06.599Z,11.70
2018-12-22T02:55:39.868Z,11.70
2018-12-22T02:58:11.314Z,11.60
2018-12-22T03:00:43.115Z,11.60
2018-12-22T03:03:20.807Z,11.60
2018-12-22T03:05:55.479Z,11.60
2018-12-22T03:08:30.928Z,11.50
2018-12-22T03:11:04.936Z,11.50
2018-12-22T03:13:40.414Z,11.60
2018-12-22T03:16:15.088Z,11.70
2018-12-22T03:18:49.091Z,11.70
2018-12-22T03:21:23.468Z,11.80
2018-12-22T03:24:01.384Z,11.70
2018-12-22T03:26:36.824Z,11.80
2018-12-22T03:29:15.428Z,11.80
2018-12-22T03:31:43.720Z,11.80
2018-12-22T03:34:23.994Z,11.90
2018-12-22T03:37:06.405Z,11.90
2018-12-22T03:39:56.749Z,11.80
2018-12-22T03:42:31.221Z,11.80
2018-12-22T03:45:07.297Z,11.60
2018-12-22T03:47:38.649Z,11.60
2018-12-22T03:50:12.530Z,11.60
2018-12-22T03:52:43.789Z,11.60
2018-12-22T03:55:18.812Z,11.70
2018-12-22T03:57:50.468Z,11.70
2018-12-22T04:00:25.195Z,11.70
2018-12-22T04:03:05.247Z,11.70
2018-12-22T04:05:45.997Z,11.70
2018-12-22T04:08:21.093Z,11.60
2018-12-22T04:10:52.380Z,11.60
2018-12-22T04:13:27.604Z,11.60
2018-12-22T04:16:05.692Z,11.60
2018-12-22T04:18:45.587Z,11.60
2018-12-22T04:21:18.859Z,11.60
2018-12-22T04:23:54.436Z,11.70
2018-12-22T04:26:38.483Z,11.70
2018-12-22T04:29:12.747Z,11.60
2018-12-22T04:31:44.002Z,11.60
2018-12-22T04:34:24.411Z,11.70
2018-12-22T04:37:01.605Z,11.70
2018-12-22T04:39:36.484Z,11.80
2018-12-22T04:42:10.127Z,11.70
2018-12-22T04:44:44.905Z,11.70
2018-12-22T04:47:18.544Z,11.70
2018-12-22T04:49:53.296Z,11.60
2018-12-22T04:52:24.366Z,11.60
2018-12-22T04:55:02.085Z,11.60
2018-12-22T04:57:37.329Z,11.60
2018-12-22T05:00:11.301Z,11.60
2018-12-22T05:02:45.308Z,11.70
2018-12-22T05:05:21.023Z,11.70
2018-12-22T05:08:01.213Z,11.70
2018-12-22T05:10:32.983Z,11.70
2018-12-22T05:13:09.239Z,11.70
2018-12-22T05:15:43.675Z,11.70
2018-12-22T05:18:18.679Z,11.70
2018-12-22T05:20:54.350Z,11.70
2018-12-22T05:23:34.301Z,11.70
2018-12-22T05:26:04.985Z,11.70
2018-12-22T05:28:38.383Z,11.70
2018-12-22T05:31:11.818Z,11.70
2018-12-22T05:33:47.730Z,11.80
2018-12-22T05:36:27.916Z,11.80
2018-12-22T05:39:04.852Z,11.70
2018-12-22T05:41:38.779Z,11.70
2018-12-22T05:44:14.751Z,11.60
2018-12-22T05:47:00.981Z,11.50
2018-12-22T05:49:35.743Z,11.60
2018-12-22T05:52:09.412Z,11.60
2018-12-22T05:54:49.636Z,11.60
2018-12-22T05:57:24.482Z,11.60
2018-12-22T06:00:00.686Z,11.70
2018-12-22T06:02:34.812Z,11.70
2018-12-22T06:05:09.296Z,11.80
2018-12-22T06:07:44.093Z,11.70
2018-12-22T06:10:17.787Z,11.70
2018-12-22T06:12:51.660Z,11.70
2018-12-22T06:15:28.381Z,11.70
2018-12-22T06:18:03.537Z,11.70
2018-12-22T06:20:43.485Z,11.70
2018-12-22T06:23:16.745Z,11.80
2018-12-22T06:25:51.600Z,11.80
2018-12-22T06:28:26.299Z,11.90
2018-12-22T06:31:04.707Z,11.80
2018-12-22T06:33:35.781Z,11.80
2018-12-22T06:36:15.429Z,11.80
2018-12-22T06:38:48.623Z,11.80
2018-12-22T06:41:21.714Z,11.80
2018-12-22T06:43:56.388Z,11.90
2018-12-22T06:46:25.567Z,11.90
2018-12-22T06:49:00.610Z,11.90
2018-12-22T06:51:31.924Z,11.90
2018-12-22T06:54:07.010Z,11.90
2018-12-22T06:56:43.137Z,11.90
2018-12-22T06:59:18.129Z,11.90
2018-12-22T07:01:51.783Z,11.90
2018-12-22T07:04:22.988Z,11.90
2018-12-22T07:06:58.392Z,11.90
2018-12-22T07:09:48.718Z,12.00
2018-12-22T07:12:22.679Z,12.00
2018-12-22T07:15:02.756Z,12.00
2018-12-22T07:17:45.001Z,12.00
2018-12-22T07:20:35.672Z,12.00
2018-12-22T07:23:19.081Z,11.90
2018-12-22T07:29:00.707Z,11.90
2018-12-22T07:31:45.797Z,11.90
2018-12-22T07:58:37.439Z,11.70
2018-12-22T08:01:15.457Z,11.70
2018-12-22T08:06:59.298Z,11.70
2018-12-22T08:09:35.500Z,11.70
2018-12-22T08:12:09.148Z,11.60
2018-12-22T08:14:55.610Z,11.60
2018-12-22T08:17:35.876Z,11.60
2018-12-22T08:20:14.247Z,11.60
2018-12-22T08:22:50.529Z,11.60
2018-12-22T08:25:34.522Z,11.70
2018-12-22T08:28:08.600Z,11.70
2018-12-22T08:30:43.517Z,11.70
2018-12-22T08:33:13.216Z,11.60
2018-12-22T08:35:54.014Z,11.50
2018-12-22T08:41:35.833Z,11.50
2018-12-22T08:44:24.208Z,11.40
2018-12-22T08:47:04.594Z,11.40
2018-12-22T08:49:40.001Z,11.50
2018-12-22T08:52:15.693Z,11.50
2018-12-22T08:54:56.052Z,11.50
2018-12-22T08:57:25.637Z,11.60
2018-12-22T09:00:06.351Z,11.50
2018-12-22T09:02:44.529Z,11.40
2018-12-22T09:05:18.570Z,11.30
2018-12-22T09:07:53.351Z,11.20
2018-12-22T09:10:28.613Z,11.10
2018-12-22T09:13:01.255Z,11.00
2018-12-22T09:15:41.033Z,11.00
2018-12-22T09:18:16.229Z,11.00
2018-12-22T09:20:49.825Z,10.90
2018-12-22T09:23:23.942Z,10.90
2018-12-22T09:26:01.462Z,10.90
2018-12-22T09:28:33.025Z,10.80
2018-12-22T09:31:06.589Z,10.70
2018-12-22T09:33:42.173Z,10.70
2018-12-22T09:36:16.253Z,10.60
2018-12-22T09:38:50.689Z,10.60
2018-12-22T09:41:25.140Z,10.60
2018-12-22T09:43:58.867Z,10.50
2018-12-22T09:46:33.913Z,10.50
2018-12-22T09:49:11.211Z,10.50
2018-12-22T09:51:42.722Z,10.40
2018-12-22T09:54:14.123Z,10.40
2018-12-22T09:56:48.587Z,10.40
2018-12-22T09:59:23.971Z,10.40
2018-12-22T10:01:57.777Z,10.40
2018-12-22T10:04:31.268Z,10.40
2018-12-22T10:07:06.897Z,10.40
2018-12-22T10:09:40.775Z,10.30
2018-12-22T10:12:14.787Z,10.10
2018-12-22T10:14:48.232Z,10.00
2018-12-22T10:17:17.573Z,9.90
2018-12-22T10:19:58.167Z,9.80
2018-12-22T10:22:35.571Z,9.80
2018-12-22T10:25:10.291Z,9.80
2018-12-22T10:27:43.798Z,9.80
2018-12-22T10:30:24.712Z,9.90
2018-12-22T10:32:52.696Z,9.90
2018-12-22T10:35:26.772Z,10.00
2018-12-22T10:38:00.037Z,10.00
2018-12-22T10:40:31.356Z,10.10
2018-12-22T10:43:19.960Z,10.30
2018-12-22T10:46:00.206Z,10.40
2018-12-22T10:48:28.145Z,10.50
2018-12-22T10:50:55.829Z,10.70
2018-12-22T10:56:31.168Z,11.00
2018-12-22T10:58:58.996Z,11.20
2018-12-22T11:01:32.868Z,11.40
2018-12-22T11:04:13.121Z,11.40
2018-12-22T11:06:44.116Z,11.50
2018-12-22T11:09:18.454Z,11.30
2018-12-22T11:12:01.111Z,11.30
2018-12-22T11:14:34.854Z,11.30
2018-12-22T11:17:20.604Z,11.40
2018-12-22T11:20:08.745Z,11.40
2018-12-22T11:25:55.101Z,11.30
2018-12-22T11:28:39.799Z,11.20
2018-12-22T11:34:26.580Z,11.10
2018-12-22T11:37:03.181Z,11.10
2018-12-22T11:39:42.656Z,11.10
2018-12-22T11:42:19.477Z,11.00
2018-12-22T11:44:52.539Z,10.90
2018-12-22T11:47:31.728Z,10.80
2018-12-22T11:50:24.227Z,10.90
2018-12-22T11:53:14.672Z,10.80
2018-12-22T11:55:54.917Z,10.90
2018-12-22T11:58:28.859Z,10.80
2018-12-22T12:01:04.528Z,10.80
2018-12-22T12:03:48.761Z,10.90
2018-12-22T12:09:33.186Z,10.90
2018-12-22T12:12:07.511Z,10.90
2018-12-22T12:14:47.754Z,11.00
2018-12-22T12:17:34.060Z,11.00
2018-12-22T12:20:08.729Z,10.90
2018-12-22T12:22:42.352Z,10.80
2018-12-22T12:25:13.873Z,10.80
2018-12-22T12:27:54.536Z,10.70
2018-12-22T12:30:36.372Z,10.60
2018-12-22T12:33:12.945Z,10.60
2018-12-22T12:35:55.063Z,10.50
2018-12-22T12:38:30.240Z,10.40
2018-12-22T12:41:09.973Z,10.40
2018-12-22T12:46:48.919Z,10.40
2018-12-22T12:49:22.863Z,10.40
2018-12-22T12:51:56.497Z,10.40
2018-12-22T12:54:33.945Z,10.50
2018-12-22T12:57:14.110Z,10.70
2018-12-22T12:59:52.071Z,10.70
2018-12-22T13:02:40.387Z,10.60
2018-12-22T13:05:15.314Z,10.60
2018-12-22T13:07:46.312Z,10.70
2018-12-22T13:10:17.333Z,10.70
2018-12-22T13:12:53.197Z,10.80
2018-12-22T13:15:26.414Z,10.80
2018-12-22T13:18:01.986Z,10.90
2018-12-22T13:20:35.991Z,11.00
2018-12-22T13:23:18.021Z,11.10
2018-12-22T13:26:00.015Z,11.20
2018-12-22T13:28:33.471Z,11.30
2018-12-22T13:31:04.827Z,11.30
2018-12-22T13:33:47.428Z,11.40
2018-12-22T13:36:21.321Z,11.30
2018-12-22T13:39:00.957Z,11.30
2018-12-22T13:41:36.915Z,11.40
2018-12-22T13:44:17.504Z,11.40
2018-12-22T13:46:58.209Z,11.40
2018-12-22T13:49:33.467Z,11.30
2018-12-22T13:52:15.344Z,11.30
2018-12-22T13:54:49.430Z,11.30
2018-12-22T13:57:18.665Z,11.30
2018-12-22T14:00:08.704Z,11.30
2018-12-22T14:02:42.270Z,11.30
2018-12-22T14:05:13.192Z,11.10
2018-12-22T14:07:46.492Z,11.10
2018-12-22T14:10:22.108Z,11.10
2018-12-22T14:12:55.977Z,11.10
2018-12-22T14:15:27.056Z,11.10
2018-12-22T14:18:06.933Z,11.00
2018-12-22T14:20:51.128Z,11.10
2018-12-22T14:23:31.141Z,11.10
2018-12-22T14:26:06.437Z,11.00
2018-12-22T14:28:37.482Z,11.00
2018-12-22T14:31:11.839Z,10.80
2018-12-22T14:33:51.690Z,10.80
2018-12-22T14:36:25.157Z,10.70
2018-12-22T14:39:07.255Z,10.70
2018-12-22T14:41:39.354Z,10.70
2018-12-22T14:44:17.810Z,10.70
2018-12-22T14:46:52.821Z,10.80
2018-12-22T14:49:32.605Z,10.80
2018-12-22T14:52:06.172Z,10.70
2018-12-22T14:54:37.310Z,10.70
2018-12-22T14:57:06.017Z,10.60
2018-12-22T15:02:55.289Z,10.70
2018-12-22T15:05:26.708Z,10.80
2018-12-22T15:08:00.458Z,10.80
2018-12-22T15:10:46.984Z,10.80
2018-12-22T15:13:21.678Z,10.80
2018-12-22T15:15:58.536Z,10.70
2018-12-22T15:18:35.018Z,10.70
2018-12-22T15:21:04.444Z,10.60
2018-12-22T15:23:37.601Z,10.60
2018-12-22T15:26:11.714Z,10.60
2018-12-22T15:28:47.246Z,10.50
2018-12-22T15:31:27.697Z,10.60
2018-12-22T15:34:03.174Z,10.60
2018-12-22T15:36:40.948Z,10.50
2018-12-22T15:39:12.150Z,10.50
2018-12-22T15:41:43.873Z,10.50
2018-12-22T15:44:18.190Z,10.50
2018-12-22T15:46:53.679Z,10.60
2018-12-22T15:49:28.038Z,10.50
2018-12-22T15:52:01.605Z,10.60
2018-12-22T15:57:21.670Z,10.80
2018-12-22T16:00:03.098Z,10.80
2018-12-22T16:02:36.683Z,10.90
2018-12-22T16:05:16.696Z,11.00
2018-12-22T16:07:55.078Z,11.00
2018-12-22T16:10:33.017Z,11.00
2018-12-22T16:19:03.557Z,11.20
2018-12-22T16:21:50.078Z,11.20
2018-12-22T16:24:30.259Z,11.20
2018-12-22T16:27:05.867Z,11.20
2018-12-22T16:32:33.743Z,11.30
2018-12-22T16:38:17.736Z,11.30
2018-12-22T16:41:07.310Z,11.30
2018-12-22T16:50:00.618Z,10.90
2018-12-22T16:58:27.638Z,10.40
2018-12-22T17:15:52.928Z,10.70
2018-12-22T17:27:39.661Z,11.00
2018-12-22T17:30:26.705Z,11.00
2018-12-22T17:35:47.031Z,11.00
2018-12-22T17:41:24.302Z,10.90
2018-12-22T17:44:15.123Z,10.80
2018-12-22T17:49:41.392Z,10.90
2018-12-22T18:30:48.133Z,10.00
2018-12-22T18:33:22.149Z,10.00
2018-12-22T18:36:01.754Z,10.00
2018-12-22T18:38:43.408Z,10.00
2018-12-22T18:58:55.151Z,9.90
2018-12-22T19:01:30.985Z,9.90
2018-12-22T19:09:56.141Z,9.80
2018-12-22T19:12:30.635Z,9.80
2018-12-22T19:15:06.464Z,9.80
2018-12-22T19:17:45.632Z,9.80
2018-12-22T19:20:25.808Z,9.70
2018-12-22T19:23:01.460Z,9.70
2018-12-22T19:25:41.870Z,9.70
2018-12-22T19:28:17.747Z,9.70
2018-12-22T19:30:57.905Z,9.70
2018-12-22T19:33:35.823Z,9.80
2018-12-22T19:36:20.054Z,9.80
2018-12-22T19:39:02.160Z,9.80
2018-12-22T19:41:35.045Z,9.70
2018-12-22T19:44:21.207Z,9.80
2018-12-22T19:47:07.794Z,9.80
2018-12-22T19:49:58.630Z,9.80
2018-12-22T19:52:37.571Z,9.90
2018-12-22T20:01:05.370Z,9.80
2018-12-22T20:03:46.959Z,9.90
2018-12-22T20:11:56.725Z,9.80
2018-12-22T20:14:36.728Z,9.90
2018-12-22T20:17:10.152Z,9.90
2018-12-22T20:19:47.886Z,9.90
2018-12-22T20:22:34.544Z,9.90
2018-12-22T20:25:14.997Z,9.90
2018-12-22T20:28:01.772Z,9.90
2018-12-22T20:30:37.723Z,9.90
2018-12-22T20:33:15.228Z,9.90
2018-12-22T20:35:55.198Z,9.90
2018-12-22T20:38:28.445Z,9.90
2018-12-22T20:41:02.047Z,10.00
2018-12-22T20:43:43.421Z,10.00
2018-12-22T20:46:15.029Z,10.10
2018-12-22T20:48:52.979Z,10.00
2018-12-22T20:51:24.056Z,10.10
2018-12-22T20:56:31.635Z,10.10
2018-12-22T20:59:04.987Z,10.10
2018-12-22T21:01:38.578Z,10.10
2018-12-22T21:04:19.865Z,10.20
2018-12-22T21:06:54.747Z,10.10
2018-12-22T21:09:28.523Z,10.10
2018-12-22T21:12:02.459Z,10.30
2018-12-22T21:14:38.095Z,10.30
2018-12-22T21:17:07.441Z,10.30
2018-12-22T21:19:47.918Z,10.40
2018-12-22T21:22:18.900Z,10.40
2018-12-22T21:27:35.480Z,10.30
2018-12-22T21:30:12.882Z,10.40
2018-12-22T21:32:44.294Z,10.40
2018-12-22T21:35:22.580Z,10.20
2018-12-22T21:38:06.493Z,10.20
2018-12-22T21:40:46.605Z,10.20
2018-12-22T21:43:27.077Z,10.10
2018-12-22T21:45:57.895Z,10.10
2018-12-22T21:51:18.783Z,10.00
2018-12-22T21:53:58.383Z,10.00
2018-12-22T21:56:39.130Z,10.00
2018-12-22T21:59:14.524Z,10.10
2018-12-22T22:01:45.331Z,10.10
2018-12-22T22:04:16.207Z,10.20
2018-12-22T22:06:51.426Z,10.10
2018-12-22T22:09:22.632Z,10.10
2018-12-22T22:11:53.685Z,10.20
2018-12-22T22:14:33.275Z,10.20
2018-12-22T22:20:16.388Z,10.30
2018-12-22T22:22:49.380Z,10.30
2018-12-22T22:25:30.645Z,10.30
2018-12-22T22:28:03.738Z,10.30
2018-12-22T22:30:41.925Z,10.20
2018-12-22T22:33:17.163Z,10.40
2018-12-22T22:35:51.390Z,10.40
2018-12-22T22:38:29.295Z,10.40
2018-12-22T22:40:59.973Z,10.30
2018-12-22T22:43:33.065Z,10.20
2018-12-22T22:46:13.065Z,10.30
2018-12-22T22:48:46.267Z,10.20
2018-12-22T22:54:22.599Z,9.90
2018-12-22T22:56:56.208Z,9.90
2018-12-22T22:59:30.029Z,9.80
2018-12-22T23:02:07.717Z,9.70
2018-12-22T23:04:42.841Z,9.60
2018-12-22T23:07:16.291Z,9.60
2018-12-22T23:09:51.248Z,9.50
2018-12-22T23:12:24.863Z,9.40
2018-12-22T23:15:12.326Z,9.40
2018-12-22T23:17:43.665Z,9.40
2018-12-22T23:20:14.542Z,9.30
2018-12-22T23:23:01.475Z,9.30
2018-12-22T23:25:36.188Z,9.30
2018-12-22T23:28:09.797Z,9.30
2018-12-22T23:30:43.667Z,9.30
2018-12-22T23:33:18.528Z,9.30
2018-12-22T23:35:49.651Z,9.30
2018-12-22T23:38:22.792Z,9.30
2018-12-22T23:40:54.085Z,9.30
2018-12-22T23:43:22.899Z,9.40
2018-12-22T23:45:51.971Z,9.40
2018-12-22T23:48:26.956Z,9.40
2018-12-22T23:51:09.271Z,9.30
2018-12-22T23:53:40.472Z,9.30
2018-12-22T23:56:11.139Z,9.30
2018-12-22T23:58:39.960Z,9.50
